Аэропорт: Остафьево. Москва

ICAO: UUMO

METAR:
2021-10-23 00:30:00
UUMO 230030Z 22004MPS CAVOK 06/M00 Q1002 R25/090060 NOSIG RMK QFE736/0982
METAR:
Информация по данной станции не доступна